createdAt,value
2023-03-23T15:58:50.438Z,100736.94
2023-03-23T16:01:26.721Z,100726.09
2023-03-23T16:04:07.428Z,100735.16
2023-03-23T16:06:38.390Z,100720.91
2023-03-23T16:09:12.272Z,100714.00
2023-03-23T16:11:42.114Z,100714.34
2023-03-23T16:14:11.785Z,100718.59
2023-03-23T16:16:50.850Z,100708.94
2023-03-23T16:19:25.407Z,100706.53
2023-03-23T16:21:55.712Z,100700.78
2023-03-23T16:24:25.534Z,100707.56
2023-03-23T16:26:55.761Z,100696.53
2023-03-23T16:29:46.847Z,100686.81
2023-03-23T16:32:15.673Z,100689.59
2023-03-23T16:34:45.485Z,100672.25
2023-03-23T16:37:15.863Z,100670.50
2023-03-23T16:39:47.029Z,100666.44
2023-03-23T16:42:17.847Z,100663.09
2023-03-23T16:44:49.953Z,100663.97
2023-03-23T16:47:20.273Z,100658.44
2023-03-23T16:49:52.136Z,100660.66
2023-03-23T16:52:21.758Z,100651.00
2023-03-23T16:54:52.024Z,100641.31
2023-03-23T16:57:21.836Z,100634.41
2023-03-23T16:59:52.666Z,100634.41
2023-03-23T17:02:22.533Z,100632.34
2023-03-23T17:04:52.868Z,100615.69
2023-03-23T17:07:22.683Z,100613.06
2023-03-23T17:09:53.257Z,100611.00
2023-03-23T17:12:23.111Z,100594.41
2023-03-23T17:14:53.321Z,100585.81
2023-03-23T17:17:24.580Z,100581.84
2023-03-23T17:19:54.883Z,100587.03
2023-03-23T17:22:25.214Z,100582.72
2023-03-23T17:24:55.723Z,100584.78
2023-03-23T17:27:26.311Z,100574.81
2023-03-23T17:29:57.462Z,100566.75
2023-03-23T17:32:27.467Z,100570.28
2023-03-23T17:34:57.383Z,100559.00
2023-03-23T17:37:27.772Z,100558.97
2023-03-23T17:39:57.606Z,100556.31
2023-03-23T17:42:28.289Z,100563.94
2023-03-23T17:44:58.042Z,100554.81
2023-03-23T17:47:28.319Z,100554.19
2023-03-23T17:49:58.182Z,100556.41
2023-03-23T17:52:28.567Z,100559.16
2023-03-23T17:54:58.118Z,100548.91
2023-03-23T17:57:28.118Z,100541.84
2023-03-23T17:59:58.322Z,100548.47
2023-03-23T18:02:27.957Z,100538.16
2023-03-23T18:05:01.122Z,100545.75
2023-03-23T18:07:31.376Z,100541.09
2023-03-23T18:10:01.814Z,100538.09
2023-03-23T18:12:32.263Z,100551.44
2023-03-23T18:15:02.079Z,100563.84
2023-03-23T18:17:32.486Z,100563.34
2023-03-23T18:20:02.576Z,100563.19
2023-03-23T18:22:32.279Z,100574.84
2023-03-23T18:25:03.842Z,100568.13
2023-03-23T18:27:34.849Z,100575.63
2023-03-23T18:30:05.418Z,100572.66
2023-03-23T18:32:40.050Z,100573.47
2023-03-23T18:35:12.208Z,100579.03
2023-03-23T18:37:42.450Z,100579.06
2023-03-23T18:40:13.848Z,100582.63
2023-03-23T18:42:46.076Z,100588.13
2023-03-23T18:45:16.672Z,100591.25
2023-03-23T18:47:46.466Z,100591.38
2023-03-23T18:50:16.152Z,100578.72
2023-03-23T18:52:46.834Z,100581.53
2023-03-23T18:55:16.639Z,100580.31
2023-03-23T18:57:46.304Z,100572.50
2023-03-23T19:00:16.853Z,100573.34
2023-03-23T19:02:47.268Z,100568.53
2023-03-23T19:05:22.320Z,100568.06
2023-03-23T19:07:54.783Z,100568.13
2023-03-23T19:10:25.496Z,100573.09
2023-03-23T19:12:55.515Z,100575.72
2023-03-23T19:15:25.922Z,100575.28
2023-03-23T19:17:57.533Z,100579.28
2023-03-23T19:20:54.917Z,100584.34
2023-03-23T19:23:22.744Z,100595.56
2023-03-23T19:25:55.257Z,100584.34
2023-03-23T19:31:00.144Z,100588.72
2023-03-23T19:33:30.132Z,100603.59
2023-03-23T19:36:09.334Z,100602.81
2023-03-23T19:38:41.397Z,100598.91
2023-03-23T19:41:12.322Z,100598.66
2023-03-23T19:43:44.329Z,100607.28
2023-03-23T19:46:15.954Z,100611.94
2023-03-23T19:48:46.624Z,100609.81
2023-03-23T19:51:20.518Z,100591.06
2023-03-23T19:53:51.226Z,100593.72
2023-03-23T19:56:25.380Z,100600.03
2023-03-23T19:58:55.412Z,100598.09
2023-03-23T20:01:25.704Z,100606.44
2023-03-23T20:03:57.495Z,100608.88
2023-03-23T20:06:30.256Z,100620.97
2023-03-23T20:09:01.289Z,100618.81
2023-03-23T20:11:34.684Z,100622.75
2023-03-23T20:14:05.397Z,100623.84
2023-03-23T20:16:36.045Z,100630.13
2023-03-23T20:19:05.986Z,100642.16
2023-03-23T20:21:35.939Z,100645.75
2023-03-23T20:24:06.668Z,100654.75
2023-03-23T20:26:43.129Z,100650.50
2023-03-23T20:29:13.394Z,100650.06
2023-03-23T20:31:43.765Z,100663.78
2023-03-23T20:34:29.748Z,100668.72
2023-03-23T20:37:02.999Z,100672.41
2023-03-23T20:39:34.625Z,100678.88
2023-03-23T20:42:06.962Z,100685.56
2023-03-23T20:44:37.191Z,100684.81
2023-03-23T20:47:08.994Z,100675.78
2023-03-23T20:49:41.475Z,100685.97
2023-03-23T20:52:13.034Z,100691.91
2023-03-23T20:54:43.873Z,100693.53
2023-03-23T20:57:14.538Z,100696.25
2023-03-23T20:59:44.869Z,100707.97
2023-03-23T21:02:16.814Z,100724.53
2023-03-23T21:04:47.644Z,100739.44
2023-03-23T21:07:19.394Z,100736.00
2023-03-23T21:09:49.607Z,100725.75
2023-03-23T21:12:19.481Z,100726.72
2023-03-23T21:14:50.194Z,100730.78
2023-03-23T21:17:20.358Z,100726.59
2023-03-23T21:19:51.103Z,100744.16
2023-03-23T21:22:20.946Z,100744.44
2023-03-23T21:24:53.925Z,100746.94
2023-03-23T21:27:23.782Z,100744.59
2023-03-23T21:30:00.506Z,100752.34
2023-03-23T21:32:30.368Z,100747.44
2023-03-23T21:35:03.705Z,100756.03
2023-03-23T21:37:34.749Z,100754.03
2023-03-23T21:40:08.037Z,100756.41
2023-03-23T21:42:38.128Z,100752.19
2023-03-23T21:45:08.941Z,100771.19
2023-03-23T21:47:39.546Z,100787.91
2023-03-23T21:50:12.950Z,100793.66
2023-03-23T21:52:44.800Z,100798.59
2023-03-23T21:55:15.321Z,100796.34
2023-03-23T21:57:44.936Z,100804.47
2023-03-23T22:00:16.121Z,100811.66
2023-03-23T22:02:45.938Z,100808.34
2023-03-23T22:05:16.389Z,100787.19
2023-03-23T22:07:47.727Z,100790.25
2023-03-23T22:10:18.096Z,100788.22
2023-03-23T22:12:50.295Z,100811.38
2023-03-23T22:15:20.636Z,100822.47
2023-03-23T22:17:50.538Z,100825.19
2023-03-23T22:20:23.110Z,100837.25
2023-03-23T22:22:52.900Z,100839.97
2023-03-23T22:25:23.213Z,100841.16
2023-03-23T22:27:53.607Z,100843.28
2023-03-23T22:30:24.631Z,100852.66
2023-03-23T22:32:54.541Z,100853.22
2023-03-23T22:35:25.253Z,100854.69
2023-03-23T22:37:55.629Z,100863.75
2023-03-23T22:40:25.949Z,100874.56
2023-03-23T22:42:56.937Z,100871.72
2023-03-23T22:45:28.945Z,100873.25
2023-03-23T22:48:00.987Z,100878.34
2023-03-23T22:50:30.805Z,100875.06
2023-03-23T22:53:01.091Z,100883.84
2023-03-23T22:55:31.013Z,100876.69
2023-03-23T22:58:01.545Z,100883.03
2023-03-23T23:00:31.417Z,100874.81
2023-03-23T23:03:01.151Z,100864.22
2023-03-23T23:05:31.706Z,100879.03
2023-03-23T23:08:02.104Z,100889.81
2023-03-23T23:10:32.385Z,100892.03
2023-03-23T23:13:02.366Z,100900.94
2023-03-23T23:15:32.566Z,100908.13
2023-03-23T23:18:02.301Z,100902.22
2023-03-23T23:20:34.411Z,100921.84
2023-03-23T23:23:06.029Z,100921.97
2023-03-23T23:25:36.660Z,100924.44
2023-03-23T23:28:07.807Z,100921.38
2023-03-23T23:30:38.079Z,100916.41
2023-03-23T23:33:08.754Z,100913.53
2023-03-23T23:35:39.950Z,100901.38
2023-03-23T23:38:12.884Z,100907.13
2023-03-23T23:40:44.478Z,100908.56
2023-03-23T23:43:18.591Z,100899.44
2023-03-23T23:45:48.452Z,100888.16
2023-03-23T23:48:18.270Z,100905.97
2023-03-23T23:50:51.141Z,100916.53
2023-03-23T23:53:24.078Z,100914.69
2023-03-23T23:55:54.790Z,100909.59
2023-03-23T23:58:24.622Z,100911.28
